Time;durP1;ratioP1;P1;durP2;ratioP2;P2;SDS_P1;SDS_P2;PMS_P1;PMS_P2;Temp;Humidity;BMP_temperature;BMP_pressure;BME280_temperature;BME280_humidity;BME280_pressure;Samples;Min_cycle;Max_cycle;Signal;HPM_P1;HPM_P2
2022/03/11 00:01:50;;;;;;;19.05;8.95;;;;;;;6.18;45.33;101631.06;5028455;28;20030;-69
2022/03/11 00:04:15;;;;;;;21.35;9.23;;;;;;;6.04;45.79;101632.81;5029562;28;20033;-69
2022/03/11 00:06:40;;;;;;;19.42;8.77;;;;;;;6.15;45.64;101628.69;5033719;28;20033;-69
2022/03/11 00:09:06;;;;;;;17.42;8.60;;;;;;;6.13;45.46;101628.81;5025768;28;20483;-69
2022/03/11 00:11:31;;;;;;;20.75;8.73;;;;;;;6.08;45.61;101630.88;5027986;28;20107;-69
2022/03/11 00:14:00;;;;;;;18.17;7.93;;;;;;;6.15;45.45;101628.69;5029538;28;20030;-69
2022/03/11 00:16:26;;;;;;;20.77;9.18;;;;;;;6.16;45.56;101622.59;5027178;28;20446;-69
2022/03/11 00:18:52;;;;;;;17.60;8.00;;;;;;;6.19;45.49;101627.56;5032449;28;20036;-69
2022/03/11 00:21:17;;;;;;;18.58;8.98;;;;;;;6.25;44.69;101621.97;5011539;23;20038;-69
2022/03/11 00:23:43;;;;;;;16.80;8.32;;;;;;;6.29;44.95;101630.31;5023479;28;20037;-67
2022/03/11 00:26:09;;;;;;;17.75;8.52;;;;;;;6.31;44.86;101625.88;5028889;28;20037;-67
2022/03/11 00:28:36;;;;;;;18.50;8.73;;;;;;;6.22;45.24;101632.50;5012485;28;20414;-69
2022/03/11 00:31:04;;;;;;;18.38;8.38;;;;;;;6.30;44.97;101619.91;5029101;28;20029;-69
2022/03/11 00:33:29;;;;;;;19.35;8.63;;;;;;;6.39;44.41;101633.91;5011992;28;20029;-69
2022/03/11 00:35:55;;;;;;;19.92;9.02;;;;;;;6.25;44.83;101637.41;5028163;28;20059;-69
2022/03/11 00:38:20;;;;;;;16.55;8.05;;;;;;;6.34;45.08;101638.53;5016514;28;20037;-69
2022/03/11 00:40:46;;;;;;;18.13;8.55;;;;;;;6.38;44.24;101630.47;5009311;28;20033;-69
2022/03/11 00:43:11;;;;;;;20.50;8.68;;;;;;;6.32;44.56;101637.81;5025694;28;20495;-69
2022/03/11 00:45:37;;;;;;;22.00;7.72;;;;;;;6.41;44.31;101627.69;5026127;28;20095;-69
2022/03/11 00:48:02;;;;;;;16.30;8.13;;;;;;;6.39;44.21;101636.47;5025074;28;20438;-69
2022/03/11 00:50:28;;;;;;;18.08;8.07;;;;;;;6.36;44.19;101631.53;5012583;28;20060;-69
2022/03/11 00:52:56;;;;;;;17.95;8.20;;;;;;;6.37;44.36;101626.28;5007547;28;20072;-69
2022/03/11 00:55:26;;;;;;;17.38;7.70;;;;;;;6.39;44.55;101628.75;5029910;28;20483;-69
2022/03/11 00:57:52;;;;;;;19.20;9.18;;;;;;;6.40;44.25;101626.06;4990168;28;20037;-69
2022/03/11 01:00:17;;;;;;;18.42;8.38;;;;;;;6.41;44.45;101621.72;5026061;28;20026;-69
2022/03/11 01:02:45;;;;;;;21.48;9.05;;;;;;;6.44;43.85;101616.34;5029082;28;20470;-69
2022/03/11 01:05:11;;;;;;;18.80;8.18;;;;;;;6.37;44.28;101618.53;5031331;28;20045;-69
2022/03/11 01:07:37;;;;;;;21.52;8.13;;;;;;;6.41;44.24;101625.13;5008525;28;20060;-69
2022/03/11 01:10:04;;;;;;;16.92;7.90;;;;;;;6.47;44.13;101616.13;5028603;28;20075;-69
2022/03/11 01:12:30;;;;;;;15.07;7.22;;;;;;;6.37;44.01;101602.28;5027591;28;20033;-69
2022/03/11 01:14:55;;;;;;;20.67;8.68;;;;;;;6.34;44.06;101608.44;5029219;28;20499;-69
2022/03/11 01:17:21;;;;;;;15.48;7.38;;;;;;;6.38;44.04;101602.13;5033801;28;20380;-69
2022/03/11 01:19:46;;;;;;;18.98;8.20;;;;;;;6.24;44.50;101607.47;5017067;28;20033;-69
2022/03/11 01:22:12;;;;;;;14.65;7.78;;;;;;;6.22;44.56;101609.31;5029849;28;20076;-69
2022/03/11 01:24:37;;;;;;;22.58;7.50;;;;;;;6.27;44.46;101601.25;5025592;28;20037;-69
2022/03/11 01:27:03;;;;;;;24.52;8.43;;;;;;;6.29;44.37;101597.66;5024772;28;20045;-69
2022/03/11 01:29:28;;;;;;;14.98;7.35;;;;;;;6.26;44.00;101595.28;5027651;28;20029;-69
2022/03/11 01:31:54;;;;;;;19.65;8.30;;;;;;;6.24;44.65;101595.41;5023993;28;20047;-69
2022/03/11 01:34:20;;;;;;;21.20;8.60;;;;;;;6.11;44.86;101596.38;5009189;28;20037;-69
2022/03/11 01:36:46;;;;;;;18.98;7.60;;;;;;;6.15;44.38;101590.06;5009588;28;20027;-69
2022/03/11 01:39:12;;;;;;;19.30;7.72;;;;;;;6.14;44.94;101586.69;5012631;28;20573;-69
2022/03/11 01:41:38;;;;;;;14.07;6.75;;;;;;;6.15;44.53;101588.31;5009098;28;20032;-67
2022/03/11 01:44:09;;;;;;;14.95;7.97;;;;;;;6.11;44.55;101579.16;5027401;28;20033;-67
2022/03/11 01:46:35;;;;;;;16.85;7.65;;;;;;;6.00;44.97;101573.94;5011480;28;20034;-69
2022/03/11 01:49:04;;;;;;;27.85;7.20;;;;;;;5.99;45.26;101577.44;5011843;28;20044;-69
2022/03/11 01:51:33;;;;;;;18.45;7.65;;;;;;;6.04;44.47;101572.78;5028741;28;20124;-69
2022/03/11 01:53:59;;;;;;;16.48;6.75;;;;;;;6.09;44.43;101569.91;5026386;28;20526;-69
2022/03/11 01:56:25;;;;;;;18.42;7.70;;;;;;;6.11;44.32;101566.28;5012740;28;20029;-69
2022/03/11 01:58:52;;;;;;;18.70;8.65;;;;;;;5.99;44.92;101564.56;5011091;28;20029;-69
2022/03/11 02:01:19;;;;;;;16.30;8.30;;;;;;;5.98;44.72;101556.03;5028930;28;20049;-69
2022/03/11 02:03:45;;;;;;;13.98;7.25;;;;;;;5.92;45.30;101559.00;5015206;28;20033;-69
2022/03/11 02:06:13;;;;;;;15.10;6.85;;;;;;;5.95;44.78;101547.66;5031988;28;20040;-69
2022/03/11 02:08:39;;;;;;;19.13;8.30;;;;;;;5.90;44.92;101550.56;5029555;28;20556;-69
2022/03/11 02:11:06;;;;;;;16.65;6.93;;;;;;;5.93;44.63;101550.34;5029425;28;20041;-69
2022/03/11 02:13:48;;;;;;;12.52;6.97;;;;;;;5.87;45.18;101548.19;5035696;28;20030;-69
2022/03/11 02:16:15;;;;;;;15.52;7.20;;;;;;;5.84;45.25;101543.28;5032557;28;20368;-69
2022/03/11 02:18:41;;;;;;;20.60;6.97;;;;;;;5.93;44.82;101541.78;5029010;28;20475;-69
2022/03/11 02:21:09;;;;;;;17.10;6.80;;;;;;;5.85;45.09;101540.56;5024647;28;20036;-69
2022/03/11 02:23:44;;;;;;;16.15;7.05;;;;;;;5.78;45.42;101544.53;5031309;28;20052;-69
2022/03/11 02:26:17;;;;;;;17.77;8.07;;;;;;;5.93;44.85;101542.59;5016849;28;20408;-69
2022/03/11 02:28:43;;;;;;;16.75;8.02;;;;;;;5.85;45.32;101542.34;5013463;28;20038;-69
2022/03/11 02:31:09;;;;;;;18.13;8.18;;;;;;;5.80;45.40;101540.09;5015727;28;20068;-69
2022/03/11 02:33:35;;;;;;;14.30;6.75;;;;;;;5.80;44.92;101536.69;5019790;28;20029;-69
2022/03/11 02:36:00;;;;;;;16.17;7.40;;;;;;;5.77;45.38;101534.34;5010868;28;20392;-69
2022/03/11 02:38:27;;;;;;;17.65;7.30;;;;;;;5.72;45.83;101533.81;5036802;28;20033;-69
2022/03/11 02:40:53;;;;;;;18.83;7.95;;;;;;;5.73;45.80;101522.63;5034841;28;20025;-69
2022/03/11 02:43:19;;;;;;;13.85;6.32;;;;;;;5.72;45.84;101526.91;5034244;28;20087;-69
2022/03/11 02:45:44;;;;;;;17.77;8.45;;;;;;;5.68;45.80;101522.09;5032498;28;20634;-69
2022/03/11 02:48:09;;;;;;;15.68;7.05;;;;;;;5.80;45.53;101521.22;5015611;28;20048;-69
2022/03/11 02:50:35;;;;;;;15.23;6.97;;;;;;;5.73;46.33;101517.47;5014609;28;20045;-69
2022/03/11 02:53:00;;;;;;;15.55;7.47;;;;;;;5.70;45.73;101533.91;5030589;28;20037;-69
2022/03/11 02:55:26;;;;;;;17.30;7.30;;;;;;;5.70;46.03;101530.53;5035635;28;20033;-69
2022/03/11 02:57:51;;;;;;;14.93;7.22;;;;;;;5.73;46.25;101526.00;5015201;28;20356;-69
2022/03/11 03:00:17;;;;;;;14.95;7.50;;;;;;;5.77;46.19;101518.91;5032229;28;20037;-69
2022/03/11 03:02:43;;;;;;;13.90;6.90;;;;;;;5.80;46.26;101516.94;5028205;28;20049;-69
2022/03/11 03:05:09;;;;;;;15.23;7.30;;;;;;;5.84;46.26;101517.53;5027729;28;20033;-69
2022/03/11 03:07:35;;;;;;;17.40;8.05;;;;;;;5.82;46.22;101512.50;5028403;28;20037;-69
2022/03/11 03:10:00;;;;;;;15.52;7.97;;;;;;;5.75;45.92;101510.47;5030424;28;20124;-69
2022/03/11 03:12:26;;;;;;;14.32;7.28;;;;;;;5.74;46.38;101513.94;5029579;28;20065;-69
2022/03/11 03:14:53;;;;;;;18.10;7.32;;;;;;;5.63;47.00;101505.22;5029827;28;20034;-69
2022/03/11 03:17:21;;;;;;;24.40;8.32;;;;;;;5.66;46.49;101515.28;5013809;28;20396;-69
2022/03/11 03:19:48;;;;;;;16.60;7.60;;;;;;;5.61;46.97;101508.81;5016128;28;20032;-69
2022/03/11 03:22:14;;;;;;;18.98;7.65;;;;;;;5.64;47.20;101514.59;5015700;28;20074;-69
2022/03/11 03:24:42;;;;;;;27.98;8.15;;;;;;;5.64;47.37;101504.28;5026430;28;20033;-69
2022/03/11 03:27:09;;;;;;;18.48;7.50;;;;;;;5.57;47.45;101508.22;5029977;28;20033;-69
2022/03/11 03:29:34;;;;;;;16.35;7.18;;;;;;;5.51;47.83;101503.50;5032432;28;20044;-69
2022/03/11 03:32:00;;;;;;;17.50;8.30;;;;;;;5.47;48.00;101499.50;5029241;28;20492;-69
2022/03/11 03:34:29;;;;;;;18.20;7.97;;;;;;;5.52;48.02;101496.59;5027515;28;20091;-69
2022/03/11 03:36:58;;;;;;;18.50;8.90;;;;;;;5.49;48.02;101489.91;5028503;28;20033;-68
2022/03/11 03:39:24;;;;;;;15.73;7.78;;;;;;;5.47;47.89;101491.78;5026379;28;20128;-69
2022/03/11 03:41:52;;;;;;;16.15;7.88;;;;;;;5.43;48.06;101500.63;5027591;28;20021;-69
2022/03/11 03:44:17;;;;;;;15.38;7.97;;;;;;;5.45;48.58;101491.88;5028832;28;20059;-69
2022/03/11 03:46:43;;;;;;;19.17;8.27;;;;;;;5.45;48.37;101491.88;5029248;28;20411;-69
2022/03/11 03:49:09;;;;;;;22.60;8.10;;;;;;;5.41;48.33;101489.63;5031656;28;20060;-69
2022/03/11 03:51:35;;;;;;;18.33;8.07;;;;;;;5.29;48.79;101493.84;5029298;28;21630;-69
2022/03/11 03:54:01;;;;;;;20.13;8.63;;;;;;;5.38;48.69;101498.38;5033729;28;20109;-69
2022/03/11 03:56:26;;;;;;;24.05;8.82;;;;;;;5.38;48.86;101492.41;5031697;28;20708;-69
2022/03/11 03:58:52;;;;;;;20.13;8.60;;;;;;;5.43;48.56;101496.31;5017006;28;20037;-69
2022/03/11 04:01:17;;;;;;;17.77;8.63;;;;;;;5.37;49.02;101495.91;5030305;28;20044;-69
2022/03/11 04:03:43;;;;;;;19.27;7.70;;;;;;;5.46;48.62;101496.13;5013367;28;20041;-68
2022/03/11 04:06:09;;;;;;;25.63;8.15;;;;;;;5.38;48.78;101497.56;5028332;28;20025;-69
2022/03/11 04:08:34;;;;;;;26.48;8.82;;;;;;;5.37;49.10;101496.75;5017655;28;20513;-69
2022/03/11 04:11:00;;;;;;;18.80;7.78;;;;;;;5.36;49.09;101495.06;5030136;28;20039;-69
2022/03/11 04:13:25;;;;;;;20.48;9.15;;;;;;;5.35;49.48;101497.75;5012516;28;20056;-69
2022/03/11 04:15:51;;;;;;;17.15;7.93;;;;;;;5.22;49.87;101506.31;5029118;28;20036;-69
2022/03/11 04:18:16;;;;;;;21.05;8.57;;;;;;;5.28;49.37;101511.97;5010992;28;20021;-69
2022/03/11 04:20:42;;;;;;;18.23;9.05;;;;;;;5.24;50.02;101507.03;5029839;28;20423;-69
2022/03/11 04:23:08;;;;;;;18.40;8.00;;;;;;;5.21;49.99;101502.09;5010043;28;20036;-69
2022/03/11 04:25:33;;;;;;;20.75;8.82;;;;;;;5.26;49.61;101500.03;5029974;28;20380;-69
2022/03/11 04:27:59;;;;;;;21.58;8.98;;;;;;;5.25;49.93;101490.69;5009126;28;20033;-69
2022/03/11 04:30:24;;;;;;;17.25;8.65;;;;;;;5.21;50.09;101488.41;5026263;28;20130;-69
2022/03/11 04:32:50;;;;;;;20.52;8.63;;;;;;;5.20;49.97;101492.75;5027052;28;20037;-69
2022/03/11 04:35:15;;;;;;;18.35;8.45;;;;;;;5.22;50.00;101488.31;5031957;28;20048;-69
2022/03/11 04:37:41;;;;;;;21.13;8.95;;;;;;;5.16;50.18;101503.31;5026161;28;20042;-69
2022/03/11 04:40:09;;;;;;;24.65;9.45;;;;;;;5.15;50.08;101494.78;5027323;28;20108;-69
2022/03/11 04:42:34;;;;;;;20.77;8.80;;;;;;;5.11;50.46;101498.50;5030304;28;20549;-69
2022/03/11 04:45:00;;;;;;;23.55;9.27;;;;;;;5.17;50.37;101498.09;5027292;28;20064;-69
2022/03/11 04:47:26;;;;;;;25.17;9.30;;;;;;;5.15;50.69;101492.22;5007052;28;20499;-69
2022/03/11 04:49:52;;;;;;;18.70;8.43;;;;;;;5.13;50.96;101496.66;5013452;28;20100;-69
2022/03/11 04:52:18;;;;;;;24.65;10.32;;;;;;;5.02;51.23;101494.78;5031034;28;20403;-69
2022/03/11 04:54:43;;;;;;;26.92;9.30;;;;;;;5.06;50.74;101503.13;5012831;28;20017;-69
2022/03/11 04:57:09;;;;;;;19.08;9.82;;;;;;;5.04;50.70;101497.25;5027090;28;20029;-69
2022/03/11 04:59:34;;;;;;;20.20;9.60;;;;;;;4.98;51.27;101501.06;5028494;28;20024;-70
2022/03/11 05:02:00;;;;;;;22.58;9.20;;;;;;;5.05;50.57;101496.34;5028065;28;20037;-69
2022/03/11 05:04:26;;;;;;;19.60;9.10;;;;;;;4.95;51.12;101500.44;5012159;28;20029;-69
2022/03/11 05:06:51;;;;;;;20.58;9.98;;;;;;;4.94;51.74;101496.25;4997396;28;20487;-69
2022/03/11 05:09:16;;;;;;;23.65;10.30;;;;;;;4.96;51.40;101487.50;5030464;28;20395;-69
2022/03/11 05:11:42;;;;;;;22.42;9.75;;;;;;;4.90;51.68;101494.78;5008617;28;20052;-69
2022/03/11 05:14:07;;;;;;;25.92;10.60;;;;;;;4.86;51.83;101504.47;5030080;28;20033;-69
2022/03/11 05:16:33;;;;;;;24.02;10.20;;;;;;;4.88;51.43;101500.06;5030712;28;20041;-69
2022/03/11 05:18:58;;;;;;;21.35;9.95;;;;;;;4.86;51.91;101496.75;4993572;28;20021;-69
2022/03/11 05:21:24;;;;;;;22.95;10.73;;;;;;;4.91;51.57;101497.25;5034819;28;20562;-69
2022/03/11 05:23:49;;;;;;;23.05;10.88;;;;;;;4.92;51.37;101493.78;5015628;28;20070;-69
2022/03/11 05:26:25;;;;;;;26.67;10.90;;;;;;;4.85;51.93;101483.06;5024663;28;20419;-69
2022/03/11 05:28:55;;;;;;;23.20;10.45;;;;;;;4.87;51.68;101488.94;5009298;28;20053;-69
2022/03/11 05:31:22;;;;;;;26.70;11.10;;;;;;;4.81;51.75;101481.63;4991806;28;20408;-69
2022/03/11 05:33:48;;;;;;;20.08;10.43;;;;;;;4.79;51.83;101477.53;5007626;28;20036;-69
2022/03/11 05:36:15;;;;;;;26.60;10.10;;;;;;;4.78;51.66;101476.69;5028516;28;20036;-69
2022/03/11 05:38:40;;;;;;;26.20;11.50;;;;;;;4.78;52.02;101481.81;5027824;28;20025;-69
2022/03/11 05:41:05;;;;;;;24.45;11.35;;;;;;;4.76;51.90;101483.66;5026323;28;20096;-69
2022/03/11 05:43:31;;;;;;;24.52;11.38;;;;;;;4.70;52.21;101478.94;5009241;28;20042;-69
2022/03/11 05:45:56;;;;;;;24.25;10.18;;;;;;;4.75;51.94;101478.66;5006411;28;20029;-69
2022/03/11 05:48:22;;;;;;;25.77;10.95;;;;;;;4.75;52.17;101484.63;5031424;28;20029;-69
2022/03/11 05:50:47;;;;;;;26.00;11.18;;;;;;;4.63;52.77;101480.28;5027099;28;20033;-69
2022/03/11 05:53:13;;;;;;;28.40;12.13;;;;;;;4.61;52.17;101480.34;5012281;28;20570;-69
2022/03/11 05:55:38;;;;;;;27.10;12.02;;;;;;;4.66;52.91;101480.91;5026595;28;20060;-69
2022/03/11 05:58:04;;;;;;;27.48;11.18;;;;;;;4.58;52.54;101483.16;5030787;28;20036;-68
2022/03/11 06:00:29;;;;;;;25.50;11.23;;;;;;;4.60;52.27;101483.06;5033634;28;20041;-69
2022/03/11 06:02:55;;;;;;;27.05;11.32;;;;;;;4.59;52.31;101482.22;5012040;28;20396;-69
2022/03/11 06:05:20;;;;;;;24.75;11.90;;;;;;;4.54;52.56;101484.28;5013478;28;20032;-69
2022/03/11 06:07:46;;;;;;;25.98;11.07;;;;;;;4.54;52.73;101461.16;5014530;28;20068;-69
2022/03/11 06:10:11;;;;;;;25.58;11.77;;;;;;;4.49;52.87;101470.91;5032283;28;20025;-70
2022/03/11 06:12:37;;;;;;;29.25;12.95;;;;;;;4.59;52.66;101473.69;5026261;28;20040;-69
2022/03/11 06:15:11;;;;;;;28.80;13.10;;;;;;;4.51;53.01;101463.91;5037100;28;20116;-69
2022/03/11 06:17:37;;;;;;;28.63;12.50;;;;;;;4.57;52.94;101462.69;5016369;28;20393;-69
2022/03/11 06:20:04;;;;;;;30.17;12.70;;;;;;;4.54;52.70;101466.31;5031304;28;20046;-69
2022/03/11 06:22:29;;;;;;;22.80;11.43;;;;;;;4.53;52.93;101471.53;5007219;23;20132;-70
2022/03/11 06:24:56;;;;;;;26.65;11.65;;;;;;;4.48;53.07;101466.69;5025384;28;20179;-71
2022/03/11 06:27:24;;;;;;;31.27;13.13;;;;;;;4.46;52.94;101460.81;5032171;28;20390;-70
2022/03/11 06:29:51;;;;;;;30.55;13.05;;;;;;;4.47;52.98;101471.00;5031095;28;20021;-70
2022/03/11 06:32:17;;;;;;;28.45;12.43;;;;;;;4.52;53.11;101462.16;5021053;28;20053;-71
2022/03/11 06:34:42;;;;;;;38.53;13.38;;;;;;;4.53;52.91;101463.81;5011987;28;20026;-70
2022/03/11 06:37:08;;;;;;;29.10;12.75;;;;;;;4.57;53.18;101467.84;5012971;28;20024;-70
2022/03/11 06:39:33;;;;;;;32.75;13.23;;;;;;;4.55;53.43;101467.13;4996291;28;20511;-71
2022/03/11 06:41:59;;;;;;;33.58;14.52;;;;;;;4.54;53.05;101465.44;5012346;28;20034;-71
2022/03/11 06:44:30;;;;;;;34.75;12.82;;;;;;;4.58;53.11;101472.06;5009769;28;20414;-70
2022/03/11 06:46:55;;;;;;;31.75;13.68;;;;;;;4.60;53.53;101476.16;5019796;28;20498;-70
2022/03/11 06:49:21;;;;;;;29.20;13.68;;;;;;;4.67;52.91;101471.44;5008381;28;20032;-71
2022/03/11 06:51:46;;;;;;;29.98;13.32;;;;;;;4.59;53.57;101469.38;5010974;28;20508;-70
2022/03/11 06:54:12;;;;;;;30.65;13.25;;;;;;;4.68;53.13;101463.63;5015927;28;20033;-71
2022/03/11 06:56:38;;;;;;;29.95;13.55;;;;;;;4.82;52.52;101472.16;5013087;28;20030;-70
2022/03/11 06:59:07;;;;;;;31.23;12.90;;;;;;;5.02;52.45;101466.50;4992697;28;20246;-70
2022/03/11 07:01:32;;;;;;;36.70;14.23;;;;;;;5.24;51.28;101471.03;5010916;28;20570;-71
2022/03/11 07:03:58;;;;;;;35.05;15.65;;;;;;;5.33;51.25;101484.19;5012485;28;20096;-71
2022/03/11 07:06:25;;;;;;;44.58;18.30;;;;;;;5.62;50.58;101477.84;5003195;28;20033;-71
2022/03/11 07:08:50;;;;;;;33.33;13.85;;;;;;;5.74;50.40;101475.34;5011553;28;20017;-71
2022/03/11 07:11:16;;;;;;;32.13;15.15;;;;;;;5.95;49.99;101473.00;5012159;28;20038;-71
2022/03/11 07:13:44;;;;;;;34.10;13.90;;;;;;;5.91;49.84;101467.25;4994379;28;20038;-71
2022/03/11 07:16:10;;;;;;;31.20;13.82;;;;;;;6.08;49.33;101457.53;5004824;28;20046;-70
2022/03/11 07:18:36;;;;;;;35.20;14.38;;;;;;;6.23;48.98;101475.28;5010123;28;20075;-71
2022/03/11 07:21:02;;;;;;;32.50;15.25;;;;;;;6.31;48.53;101479.03;5017840;28;20431;-71
2022/03/11 07:23:29;;;;;;;36.28;14.70;;;;;;;6.63;48.04;101472.38;5011179;28;20030;-71
2022/03/11 07:25:55;;;;;;;34.75;15.02;;;;;;;6.47;48.41;101471.03;5002783;28;20120;-71
2022/03/11 07:28:20;;;;;;;32.13;13.73;;;;;;;6.80;47.84;101478.03;5013358;28;20527;-71
2022/03/11 07:30:48;;;;;;;32.72;14.25;;;;;;;6.73;47.69;101469.09;4984386;28;20026;-71
2022/03/11 07:33:13;;;;;;;35.30;15.43;;;;;;;6.93;47.58;101468.44;4993966;28;20150;-71
2022/03/11 07:35:39;;;;;;;30.55;13.85;;;;;;;6.72;47.62;101464.88;5010870;28;20034;-71
2022/03/11 07:38:05;;;;;;;31.48;14.20;;;;;;;7.02;46.74;101456.56;4995606;28;20029;-72
2022/03/11 07:40:31;;;;;;;36.55;15.27;;;;;;;6.92;46.95;101463.38;5009323;28;20087;-71
2022/03/11 07:42:56;;;;;;;34.67;15.10;;;;;;;7.07;46.79;101463.97;5005423;28;20458;-71
2022/03/11 07:45:22;;;;;;;31.52;14.20;;;;;;;7.32;46.38;101458.56;5015475;28;20558;-71
2022/03/11 07:47:47;;;;;;;40.40;17.85;;;;;;;7.76;45.45;101464.59;5010832;28;20391;-71
2022/03/11 07:50:14;;;;;;;33.60;15.32;;;;;;;7.77;44.60;101457.69;5014675;28;20514;-71
2022/03/11 07:52:40;;;;;;;35.35;15.23;;;;;;;7.53;45.28;101461.22;5014639;28;20071;-71
2022/03/11 07:55:08;;;;;;;32.25;14.60;;;;;;;7.54;45.32;101462.06;5012151;28;20069;-71
2022/03/11 07:57:36;;;;;;;34.25;15.73;;;;;;;7.70;45.03;101459.91;5015876;28;20068;-72
2022/03/11 08:00:04;;;;;;;31.48;15.38;;;;;;;7.72;44.74;101458.06;5010271;28;20095;-71
2022/03/11 08:02:40;;;;;;;35.08;15.73;;;;;;;7.77;44.95;101447.34;5008406;28;20044;-71
2022/03/11 08:05:06;;;;;;;33.65;15.25;;;;;;;7.67;44.78;101442.09;5013664;28;20479;-72
2022/03/11 08:07:34;;;;;;;32.35;15.38;;;;;;;7.46;44.56;101461.84;5012875;28;20029;-71
2022/03/11 08:09:59;;;;;;;31.73;15.35;;;;;;;7.27;45.65;101449.53;4993244;28;20466;-71
2022/03/11 08:12:25;;;;;;;31.17;14.57;;;;;;;7.32;45.11;101452.59;5019459;28;20042;-71
2022/03/11 08:14:51;;;;;;;30.42;15.68;;;;;;;7.75;44.56;101441.50;5014001;28;20034;-71
2022/03/11 08:17:16;;;;;;;36.00;16.80;;;;;;;7.91;43.95;101443.66;5021301;28;20034;-71
2022/03/11 08:19:42;;;;;;;31.73;15.65;;;;;;;8.06;44.14;101432.13;4997201;28;20029;-71
2022/03/11 08:22:08;;;;;;;32.55;15.40;;;;;;;8.09;43.87;101431.84;5011637;28;20401;-72
2022/03/11 08:24:33;;;;;;;32.30;15.52;;;;;;;8.24;43.13;101431.56;5009797;28;20088;-71
2022/03/11 08:26:59;;;;;;;34.40;15.15;;;;;;;8.14;43.28;101431.50;5008422;28;20033;-72
2022/03/11 08:29:26;;;;;;;39.67;17.00;;;;;;;8.28;43.32;101426.00;5008527;28;20091;-71
2022/03/11 08:31:52;;;;;;;33.63;15.50;;;;;;;8.53;42.76;101426.59;5009689;28;20063;-71
2022/03/11 08:34:17;;;;;;;30.90;14.32;;;;;;;8.95;42.34;101422.19;4989643;28;20484;-71
2022/03/11 08:36:43;;;;;;;38.05;16.35;;;;;;;8.94;41.95;101430.88;5005787;28;20218;-71
2022/03/11 08:39:10;;;;;;;29.80;15.15;;;;;;;9.04;41.52;101422.34;4990401;28;20104;-71
2022/03/11 08:41:35;;;;;;;33.53;15.70;;;;;;;9.29;41.69;101427.06;5005467;28;20104;-71
2022/03/11 08:44:03;;;;;;;33.22;15.75;;;;;;;9.10;41.84;101427.03;4996059;28;20100;-72
2022/03/11 08:46:30;;;;;;;37.72;16.08;;;;;;;8.74;42.01;101430.00;5007363;28;20095;-71
2022/03/11 08:48:55;;;;;;;35.45;17.13;;;;;;;8.98;41.88;101423.69;5002208;28;20033;-72
2022/03/11 08:51:22;;;;;;;39.38;15.00;;;;;;;8.49;42.03;101414.88;5009781;28;20036;-72
2022/03/11 08:53:48;;;;;;;41.90;16.45;;;;;;;9.09;41.73;101413.25;4991189;28;20724;-72
2022/03/11 08:56:15;;;;;;;28.92;15.48;;;;;;;9.18;41.18;101409.06;5006137;28;20038;-72
2022/03/11 08:58:41;;;;;;;39.22;15.35;;;;;;;9.54;40.82;101412.00;4994121;28;20549;-72
2022/03/11 09:01:06;;;;;;;34.05;15.23;;;;;;;9.32;40.88;101411.28;5016304;28;20075;-71
2022/03/11 09:03:32;;;;;;;35.10;15.98;;;;;;;9.21;40.56;101410.56;5011941;28;20402;-72
2022/03/11 09:05:58;;;;;;;36.47;15.93;;;;;;;9.21;41.20;101411.41;5018109;28;20029;-72
2022/03/11 09:08:24;;;;;;;31.30;14.25;;;;;;;8.70;41.20;101413.09;5014943;28;20042;-71
2022/03/11 09:10:49;;;;;;;36.95;15.38;;;;;;;9.09;41.22;101415.84;4990759;28;20033;-71
2022/03/11 09:13:15;;;;;;;31.33;15.82;;;;;;;9.27;40.70;101405.69;5016472;28;20072;-71
2022/03/11 09:15:40;;;;;;;30.65;15.80;;;;;;;9.81;40.39;101410.53;5017157;28;20033;-72
2022/03/11 09:18:06;;;;;;;30.92;15.23;;;;;;;9.98;39.58;101416.78;4981203;28;20044;-70
2022/03/11 09:20:31;;;;;;;40.17;17.08;;;;;;;9.35;40.50;101410.19;4987431;28;20030;-71
2022/03/11 09:22:57;;;;;;;35.63;16.52;;;;;;;9.17;40.32;101407.41;5002739;28;20025;-71
2022/03/11 09:25:23;;;;;;;34.17;15.90;;;;;;;9.43;40.58;101406.94;5013114;28;20042;-72
2022/03/11 09:27:48;;;;;;;36.40;15.45;;;;;;;9.16;40.38;101405.78;5018517;28;20037;-71
2022/03/11 09:30:14;;;;;;;38.85;16.42;;;;;;;9.04;40.75;101396.47;5011863;28;20048;-71
2022/03/11 09:32:40;;;;;;;37.55;14.68;;;;;;;9.10;41.25;101396.78;5014131;28;20021;-72
2022/03/11 09:35:07;;;;;;;34.30;16.23;;;;;;;9.01;41.28;101394.97;4999489;28;20091;-71
2022/03/11 09:37:33;;;;;;;34.45;16.05;;;;;;;8.86;42.11;101393.72;5010334;28;20029;-71
2022/03/11 09:39:59;;;;;;;31.42;15.02;;;;;;;8.73;41.61;101384.38;5013482;28;20546;-72
2022/03/11 09:42:24;;;;;;;41.72;15.73;;;;;;;8.92;41.67;101391.41;4990368;28;20403;-72
2022/03/11 09:44:51;;;;;;;37.15;14.93;;;;;;;9.28;41.09;101391.78;5006140;28;20037;-72
2022/03/11 09:47:18;;;;;;;33.10;14.85;;;;;;;9.53;40.85;101400.84;5015541;28;20045;-71
2022/03/11 09:49:44;;;;;;;32.03;15.55;;;;;;;9.18;40.70;101393.53;5005456;28;20025;-71
2022/03/11 09:52:11;;;;;;;33.10;14.52;;;;;;;9.37;40.61;101390.16;5006154;28;20042;-71
2022/03/11 09:54:36;;;;;;;30.80;15.43;;;;;;;9.33;41.26;101378.44;5005601;28;20029;-69
2022/03/11 09:57:02;;;;;;;33.45;15.68;;;;;;;9.18;41.02;101377.19;5013910;28;22014;-71
2022/03/11 09:59:28;;;;;;;35.03;16.02;;;;;;;9.32;40.94;101376.81;5005771;28;20053;-72
2022/03/11 10:01:55;;;;;;;30.73;14.50;;;;;;;9.14;40.96;101385.22;5004813;28;20034;-71
2022/03/11 10:04:21;;;;;;;31.60;14.43;;;;;;;9.16;41.10;101383.31;5006021;28;20033;-72
2022/03/11 10:06:48;;;;;;;35.08;16.45;;;;;;;9.39;41.46;101382.28;4983201;28;20326;-72
2022/03/11 10:09:19;;;;;;;30.00;15.15;;;;;;;9.35;40.79;101384.31;4984548;28;20045;-72
2022/03/11 10:11:58;;;;;;;30.75;15.25;;;;;;;9.30;40.80;101378.72;5009438;28;20487;-72
2022/03/11 10:14:29;;;;;;;35.88;15.88;;;;;;;9.55;41.48;101382.59;5003948;28;20445;-72
2022/03/11 10:16:55;;;;;;;35.28;17.13;;;;;;;9.42;40.83;101382.84;4984087;28;20476;-72
2022/03/11 10:19:22;;;;;;;30.50;15.65;;;;;;;9.47;40.54;101379.81;4991186;28;20065;-72
2022/03/11 10:21:49;;;;;;;32.85;15.73;;;;;;;9.31;40.67;101378.59;4982334;28;20057;-72
2022/03/11 10:24:19;;;;;;;34.47;17.08;;;;;;;9.48;40.45;101382.28;5000077;28;20038;-70
2022/03/11 10:26:50;;;;;;;34.60;15.55;;;;;;;9.52;40.99;101375.06;5007129;28;20021;-70
2022/03/11 10:29:17;;;;;;;32.47;14.82;;;;;;;9.53;40.47;101367.19;4997412;28;20134;-70
2022/03/11 10:31:45;;;;;;;31.95;15.57;;;;;;;9.31;40.39;101370.00;4963341;28;20246;-72
2022/03/11 10:40:15;;;;;;;33.10;16.02;;;;;;;9.80;41.57;101342.38;5028736;27;1913665;-69
2022/03/11 10:42:41;;;;;;;30.63;15.75;;;;;;;9.97;40.59;101338.25;5056204;28;20039;-70
2022/03/11 10:45:10;;;;;;;31.63;15.00;;;;;;;10.09;39.99;101328.53;5056656;28;20040;-70
2022/03/11 10:47:40;;;;;;;29.27;14.90;;;;;;;9.91;39.34;101337.03;5062394;28;20032;-71
2022/03/11 10:50:07;;;;;;;36.75;15.63;;;;;;;9.72;39.98;101358.59;5073704;28;20531;-71
2022/03/11 10:52:37;;;;;;;29.52;14.60;;;;;;;9.48;39.97;101335.69;5052842;28;20036;-71
2022/03/11 10:55:23;;;;;;;31.27;15.15;;;;;;;9.68;40.32;101353.81;5068873;28;20051;-71
2022/03/11 10:57:54;;;;;;;31.33;14.70;;;;;;;9.83;40.27;101338.66;5074552;28;20105;-69
2022/03/11 11:00:22;;;;;;;35.28;15.27;;;;;;;9.82;40.56;101339.66;5070455;28;20212;-69
2022/03/11 11:02:49;;;;;;;36.28;17.60;;;;;;;9.83;40.00;101346.44;5071465;28;20040;-69
2022/03/11 11:05:15;;;;;;;51.63;15.68;;;;;;;9.85;40.29;101332.41;5042535;28;20469;-69
2022/03/11 11:07:41;;;;;;;36.97;16.13;;;;;;;9.80;40.92;101328.59;5069529;28;20043;-69
2022/03/11 11:10:11;;;;;;;35.38;16.00;;;;;;;9.85;40.12;101316.88;5060984;28;20028;-69
2022/03/11 11:12:38;;;;;;;31.60;14.65;;;;;;;9.86;40.07;101310.72;5077663;28;20553;-69
2022/03/11 11:15:04;;;;;;;32.67;15.35;;;;;;;10.00;40.59;101312.09;5042674;28;20032;-68
2022/03/11 11:17:31;;;;;;;30.63;15.50;;;;;;;10.25;39.62;101302.06;5073108;28;20040;-69
2022/03/11 11:20:00;;;;;;;32.33;16.17;;;;;;;10.28;39.75;101288.78;5061157;28;20481;-68
2022/03/11 11:22:26;;;;;;;31.05;16.30;;;;;;;10.31;39.71;101297.13;5073074;28;20032;-70
2022/03/11 11:24:54;;;;;;;38.25;16.38;;;;;;;10.54;39.69;101294.19;5055764;28;20035;-69